メインページ
METAR-TAF:

METAR-TAF

空港 :

ハバナ, キューバ

ホセ・マルティ国際空港

緯度: 22-59N, 経度: 082-24W, 海抜: 59m

現時点の気象観測

当レポートは1時間13分前の10:55(UTC)に作成
変向風 2kt
気温 15°C
湿度 94%
気圧 1021 hPa
視程: 9000m
高度3000ftの雲はほとんどない

METAR: MUHA 241055Z VRB02KT 9000 FEW030 15/14 Q1021

時間: 08:08 (12:08 UTC)

予報

当レポートは7時間8分前の05:00(UTC)に作成
予報は24日の 06時(UTC)から 25日の 06時(UTC)まで有効
変向風 3kt
視程: 9000m
高度3000ftの雲はほとんどない
24日の 09時(UTC)から 24日の 12時(UTC)まで一時的に
視程: 5000m
24日の 13時(UTC)から 24日の 16時(UTC)まで徐々に
東/北東の風 12kt
24日の 18時(UTC)から 24日の 23時(UTC)まで一時的に
高度1500ftの千切れ雲あり

TAF: MUHA 240500Z 2406/2506 VRB03KT 9000 FEW030 TEMPO 2409/2412 5000 BR BECMG 2413/2416 06012KT TEMPO 2418/2423 BKN015

4,000以上の空港の気象観測と天気予報(METAR報とTAF報)

利用可能な観測所は地図上に黄色い丸と赤い丸で示す。

丸の上にカーソルを重ねると観測所名を参照できる。

次にクリックすると気象観測と天気予報を参照できる。

マップの切り替え:黒色「×」印の緑ボタンをクリックして拡大、「-」印の緑ボタンをクリックして縮小、緑色の三角印をクリックして隣りの地図に切り替え


METAR-TAF: